Time;durP1;ratioP1;P1;durP2;ratioP2;P2;SDS_P1;SDS_P2;PMS_P1;PMS_P2;Temp;Humidity;BMP_temperature;BMP_pressure;BME280_temperature;BME280_humidity;BME280_pressure;Samples;Min_cycle;Max_cycle;Signal;HPM_P1;HPM_P2
2022/12/10 00:01:39;;;;;;;2.37;1.13;;;;;;;;;;5088943;28;20631;-63
2022/12/10 00:04:06;;;;;;;2.03;1.43;;;;;;;;;;5094885;28;20226;-63
2022/12/10 00:06:34;;;;;;;4.63;2.60;;;;;;;;;;5090299;28;20234;-63
2022/12/10 00:09:03;;;;;;;5.17;3.10;;;;;;;;;;5101695;28;20598;-62
2022/12/10 00:11:30;;;;;;;7.30;3.20;;;;;;;;;;5101194;28;20208;-63
2022/12/10 00:13:57;;;;;;;6.00;4.40;;;;;;;;;;5106379;28;20537;-63
2022/12/10 00:16:25;;;;;;;7.80;4.03;;;;;;;;;;5100072;28;20870;-63
2022/12/10 00:18:53;;;;;;;5.70;3.07;;;;;;;;;;5092054;28;20209;-62
2022/12/10 00:21:21;;;;;;;4.53;2.63;;;;;;;;;;5105640;28;20199;-63
2022/12/10 00:23:49;;;;;;;3.10;2.80;;;;;;;;;;5104723;28;20577;-62
2022/12/10 00:26:18;;;;;;;1.77;0.83;;;;;;;;;;5104500;28;20202;-62
2022/12/10 00:28:46;;;;;;;6.13;2.57;;;;;;;;;;5102552;28;20217;-63
2022/12/10 00:31:13;;;;;;;3.13;2.07;;;;;;;;;;5095845;28;20209;-62
2022/12/10 00:33:41;;;;;;;12.73;5.10;;;;;;;;;;5103116;28;20246;-62
2022/12/10 00:36:09;;;;;;;5.57;3.13;;;;;;;;;;5104965;28;20204;-62
2022/12/10 00:38:37;;;;;;;5.40;2.30;;;;;;;;;;5090217;28;20203;-62
2022/12/10 00:41:04;;;;;;;3.87;3.37;;;;;;;;;;5099210;28;20553;-62
2022/12/10 00:43:33;;;;;;;3.43;1.77;;;;;;;;;;5105774;28;20197;-62
2022/12/10 00:46:00;;;;;;;7.20;3.63;;;;;;;;;;5096328;28;20674;-63
2022/12/10 00:48:27;;;;;;;3.80;2.27;;;;;;;;;;5097171;28;20209;-63
2022/12/10 00:50:58;;;;;;;4.03;2.50;;;;;;;;;;5108224;28;20237;-62
2022/12/10 00:53:26;;;;;;;9.57;3.20;;;;;;;;;;5110942;28;20247;-62
2022/12/10 00:55:53;;;;;;;2.50;2.30;;;;;;;;;;5104308;28;20219;-62
2022/12/10 00:58:20;;;;;;;3.13;2.47;;;;;;;;;;5092623;28;20312;-62
2022/12/10 01:00:49;;;;;;;2.97;1.73;;;;;;;;;;5105541;28;20218;-62
2022/12/10 01:03:16;;;;;;;3.70;1.60;;;;;;;;;;5100393;28;20572;-62
2022/12/10 01:05:43;;;;;;;6.87;3.63;;;;;;;;;;5102070;27;20603;-62
2022/12/10 01:08:10;;;;;;;6.30;3.07;;;;;;;;;;5104236;28;20238;-62
2022/12/10 01:10:37;;;;;;;2.90;1.30;;;;;;;;;;5108973;28;20207;-62
2022/12/10 01:13:05;;;;;;;3.13;2.63;;;;;;;;;;5095174;28;20664;-62
2022/12/10 01:15:32;;;;;;;3.67;2.73;;;;;;;;;;5105700;28;20198;-62
2022/12/10 01:18:01;;;;;;;3.70;2.27;;;;;;;;;;5101353;28;20573;-62
2022/12/10 01:20:28;;;;;;;2.13;1.07;;;;;;;;;;5105985;28;20214;-62
2022/12/10 01:22:55;;;;;;;4.23;3.47;;;;;;;;;;5090644;28;20206;-62
2022/12/10 01:25:22;;;;;;;1.67;1.53;;;;;;;;;;5105248;28;20572;-63
2022/12/10 01:27:49;;;;;;;3.27;0.87;;;;;;;;;;5091405;28;20214;-63
2022/12/10 01:30:16;;;;;;;2.67;2.33;;;;;;;;;;5107159;28;20212;-63
2022/12/10 01:32:43;;;;;;;3.67;1.40;;;;;;;;;;5108323;28;20234;-63
2022/12/10 01:35:11;;;;;;;1.80;1.70;;;;;;;;;;5095950;28;20203;-63
2022/12/10 01:37:39;;;;;;;1.17;1.17;;;;;;;;;;5092128;28;20202;-63
2022/12/10 01:40:06;;;;;;;0.93;0.80;;;;;;;;;;5104407;28;20198;-63
2022/12/10 01:42:33;;;;;;;1.57;1.47;;;;;;;;;;5107597;28;20210;-62
2022/12/10 01:45:02;;;;;;;1.53;1.43;;;;;;;;;;5105643;28;20211;-63
2022/12/10 01:47:30;;;;;;;8.43;2.50;;;;;;;;;;5110643;28;20226;-62
2022/12/10 01:49:59;;;;;;;2.17;1.00;;;;;;;;;;5103951;28;20210;-63
2022/12/10 01:52:27;;;;;;;4.60;2.33;;;;;;;;;;5110280;28;20282;-63
2022/12/10 01:54:54;;;;;;;4.77;1.97;;;;;;;;;;5103590;28;20684;-62
2022/12/10 01:57:23;;;;;;;0.50;0.50;;;;;;;;;;5107623;28;20202;-63
2022/12/10 01:59:51;;;;;;;5.67;3.80;;;;;;;;;;5102076;28;20207;-63
2022/12/10 02:02:22;;;;;;;2.57;2.37;;;;;;;;;;5106261;28;20574;-62
2022/12/10 02:04:52;;;;;;;4.03;2.97;;;;;;;;;;5092181;28;20214;-62
2022/12/10 02:07:23;;;;;;;4.27;3.20;;;;;;;;;;5107798;28;20235;-61
2022/12/10 02:09:53;;;;;;;6.30;3.20;;;;;;;;;;5100365;28;20205;-62
2022/12/10 02:12:23;;;;;;;4.77;3.30;;;;;;;;;;5106590;28;20218;-63
2022/12/10 02:14:55;;;;;;;4.93;2.43;;;;;;;;;;5090127;28;20202;-62
2022/12/10 02:17:27;;;;;;;4.90;3.20;;;;;;;;;;5092481;28;20204;-63
2022/12/10 02:20:01;;;;;;;8.53;1.57;;;;;;;;;;5096098;27;20211;-60
2022/12/10 02:22:31;;;;;;;4.33;2.43;;;;;;;;;;5098278;28;20201;-60
2022/12/10 02:25:00;;;;;;;3.90;3.30;;;;;;;;;;5104203;28;20210;-60
2022/12/10 02:27:29;;;;;;;9.73;3.17;;;;;;;;;;5104846;28;20206;-60
2022/12/10 02:29:59;;;;;;;4.67;3.00;;;;;;;;;;5107546;28;20202;-60
2022/12/10 02:32:28;;;;;;;6.10;3.53;;;;;;;;;;5101403;28;20228;-60
2022/12/10 02:34:56;;;;;;;3.97;2.67;;;;;;;;;;5095667;28;20686;-62
2022/12/10 02:37:24;;;;;;;2.30;1.77;;;;;;;;;;5091712;28;20206;-61
2022/12/10 02:39:53;;;;;;;5.43;3.17;;;;;;;;;;5094863;27;20214;-61
2022/12/10 02:42:23;;;;;;;1.57;1.03;;;;;;;;;;5091117;28;20201;-61
2022/12/10 02:44:50;;;;;;;5.27;2.33;;;;;;;;;;5096216;28;20202;-61
2022/12/10 02:47:19;;;;;;;1.83;1.73;;;;;;;;;;5108470;28;20209;-61
2022/12/10 02:49:48;;;;;;;5.20;3.13;;;;;;;;;;5106930;28;20208;-61
2022/12/10 02:52:16;;;;;;;4.13;3.00;;;;;;;;;;5099270;28;20651;-61
2022/12/10 02:54:44;;;;;;;7.00;3.83;;;;;;;;;;5088754;28;20987;-61
2022/12/10 02:57:16;;;;;;;6.50;0.77;;;;;;;;;;5093508;28;20202;-61
2022/12/10 02:59:48;;;;;;;2.77;2.57;;;;;;;;;;5108432;28;20205;-61
2022/12/10 03:02:18;;;;;;;2.67;2.43;;;;;;;;;;5100375;28;20205;-61
2022/12/10 03:04:49;;;;;;;4.60;3.20;;;;;;;;;;5108943;28;20555;-60
2022/12/10 03:07:17;;;;;;;6.70;3.97;;;;;;;;;;5106853;28;20234;-61
2022/12/10 03:09:47;;;;;;;8.17;4.30;;;;;;;;;;5102394;28;20202;-61
2022/12/10 03:12:18;;;;;;;3.57;2.30;;;;;;;;;;5095164;28;20203;-61
2022/12/10 03:14:46;;;;;;;5.17;3.83;;;;;;;;;;5093336;28;20203;-61
2022/12/10 03:17:14;;;;;;;6.47;3.80;;;;;;;;;;5108405;28;20203;-61
2022/12/10 03:19:43;;;;;;;7.97;3.40;;;;;;;;;;5094188;28;20202;-61
2022/12/10 03:22:13;;;;;;;7.17;4.10;;;;;;;;;;5099467;28;20199;-61
2022/12/10 03:24:42;;;;;;;6.60;3.87;;;;;;;;;;5089174;28;20201;-61
2022/12/10 03:27:11;;;;;;;5.60;3.83;;;;;;;;;;5108451;28;20691;-62
2022/12/10 03:29:39;;;;;;;4.93;2.53;;;;;;;;;;5105178;28;20210;-62
2022/12/10 03:32:07;;;;;;;8.50;4.20;;;;;;;;;;5092879;28;20490;-62
2022/12/10 03:34:34;;;;;;;6.33;4.30;;;;;;;;;;5102061;28;20560;-61
2022/12/10 03:37:01;;;;;;;2.73;2.53;;;;;;;;;;5105322;28;20581;-62
2022/12/10 03:39:30;;;;;;;2.10;1.87;;;;;;;;;;5102660;28;20229;-61
2022/12/10 03:41:57;;;;;;;3.90;2.77;;;;;;;;;;5092946;28;20213;-61
2022/12/10 03:44:30;;;;;;;2.67;2.17;;;;;;;;;;5106875;27;20191;-61
2022/12/10 03:46:57;;;;;;;4.03;2.30;;;;;;;;;;5101357;28;20208;-61
2022/12/10 03:49:25;;;;;;;6.07;3.93;;;;;;;;;;5107251;28;20211;-61
2022/12/10 03:51:52;;;;;;;3.17;2.87;;;;;;;;;;5104494;28;20656;-60
2022/12/10 03:54:19;;;;;;;6.40;3.37;;;;;;;;;;5090528;28;20730;-61
2022/12/10 03:56:48;;;;;;;5.73;3.40;;;;;;;;;;5089026;28;20554;-61
2022/12/10 03:59:15;;;;;;;6.67;2.40;;;;;;;;;;5103744;28;20206;-61
2022/12/10 04:01:42;;;;;;;2.10;1.90;;;;;;;;;;5104593;28;20670;-60
2022/12/10 04:04:09;;;;;;;3.97;2.67;;;;;;;;;;5089054;28;20221;-61
2022/12/10 04:06:39;;;;;;;2.90;2.13;;;;;;;;;;5095863;28;20715;-61
2022/12/10 04:09:06;;;;;;;5.80;3.40;;;;;;;;;;5098438;28;20204;-61
2022/12/10 04:11:33;;;;;;;4.73;3.17;;;;;;;;;;5105801;28;20206;-61
2022/12/10 04:16:46;;;;;;;2.00;1.90;;;;;;;;;;5089538;28;20294;-61
2022/12/10 04:19:14;;;;;;;4.67;3.10;;;;;;;;;;5104186;28;20617;-62
2022/12/10 04:27:14;;;;;;;5.13;2.60;;;;;;;;;;5105445;28;20246;-62
2022/12/10 04:29:42;;;;;;;8.50;3.07;;;;;;;;;;5102856;28;20815;-61
2022/12/10 04:32:10;;;;;;;8.10;4.20;;;;;;;;;;5094455;28;20210;-61
2022/12/10 04:34:37;;;;;;;5.40;3.60;;;;;;;;;;5103799;28;20718;-61
2022/12/10 04:37:05;;;;;;;5.50;2.97;;;;;;;;;;5103153;28;20611;-62
2022/12/10 04:39:32;;;;;;;9.33;3.60;;;;;;;;;;5093216;28;20207;-61
2022/12/10 04:42:00;;;;;;;5.17;3.07;;;;;;;;;;5091947;28;20935;-60
2022/12/10 04:44:28;;;;;;;3.53;3.03;;;;;;;;;;5099018;27;20289;-61
2022/12/10 04:46:56;;;;;;;5.50;3.10;;;;;;;;;;5091623;28;20210;-61
2022/12/10 04:49:23;;;;;;;6.80;2.77;;;;;;;;;;5092013;28;20250;-61
2022/12/10 04:51:52;;;;;;;3.13;2.53;;;;;;;;;;5109280;28;20213;-61
2022/12/10 04:54:19;;;;;;;4.97;2.87;;;;;;;;;;5101447;28;20228;-61
2022/12/10 04:56:47;;;;;;;4.53;2.70;;;;;;;;;;5096716;28;20198;-61
2022/12/10 04:59:14;;;;;;;4.20;2.93;;;;;;;;;;5110824;28;20209;-61
2022/12/10 05:01:41;;;;;;;4.50;3.27;;;;;;;;;;5106496;28;20209;-61
2022/12/10 05:04:12;;;;;;;3.03;2.43;;;;;;;;;;5108907;28;20227;-60
2022/12/10 05:06:40;;;;;;;4.63;2.83;;;;;;;;;;5090830;28;20241;-61
2022/12/10 05:09:07;;;;;;;4.87;2.50;;;;;;;;;;5091224;28;20583;-61
2022/12/10 05:11:35;;;;;;;2.67;2.47;;;;;;;;;;5099245;28;20210;-61
2022/12/10 05:14:02;;;;;;;6.37;3.07;;;;;;;;;;5092266;28;20222;-61
2022/12/10 05:16:30;;;;;;;2.73;2.23;;;;;;;;;;5091213;28;20592;-61
2022/12/10 05:18:58;;;;;;;4.90;3.20;;;;;;;;;;5092249;28;20198;-61
2022/12/10 05:23:27;;;;;;;2.97;2.73;;;;;;;;;;5094846;28;20985;-61
2022/12/10 05:24:15;;;;;;;3.87;2.83;;;;;;;;;;5092060;28;20206;-61
2022/12/10 05:26:42;;;;;;;5.93;3.50;;;;;;;;;;5093456;28;20206;-61
2022/12/10 05:29:09;;;;;;;3.20;2.87;;;;;;;;;;5091178;28;20217;-61
2022/12/10 05:31:36;;;;;;;5.27;3.43;;;;;;;;;;5108145;28;20200;-61
2022/12/10 05:34:03;;;;;;;4.30;2.90;;;;;;;;;;5098080;28;20231;-61
2022/12/10 05:36:33;;;;;;;3.70;3.03;;;;;;;;;;5109274;28;20201;-61
2022/12/10 05:39:00;;;;;;;4.17;2.83;;;;;;;;;;5111192;27;20225;-61
2022/12/10 05:41:28;;;;;;;3.67;3.07;;;;;;;;;;5091943;28;20199;-61
2022/12/10 05:43:56;;;;;;;3.03;2.50;;;;;;;;;;5091758;28;20668;-61
2022/12/10 05:46:23;;;;;;;4.20;2.83;;;;;;;;;;5090429;28;20226;-61
2022/12/10 05:48:51;;;;;;;3.83;2.60;;;;;;;;;;5090805;28;20639;-60
2022/12/10 05:51:19;;;;;;;2.77;2.57;;;;;;;;;;5090482;28;20206;-62
2022/12/10 05:53:47;;;;;;;3.83;2.90;;;;;;;;;;5089401;28;20226;-61
2022/12/10 05:56:18;;;;;;;4.03;2.93;;;;;;;;;;5090312;28;20230;-61
2022/12/10 05:58:45;;;;;;;3.20;2.93;;;;;;;;;;5096676;28;20681;-61
2022/12/10 06:01:14;;;;;;;4.17;2.90;;;;;;;;;;5098029;28;20210;-62
2022/12/10 06:03:41;;;;;;;2.30;2.07;;;;;;;;;;5096238;28;20198;-61
2022/12/10 06:06:08;;;;;;;4.77;2.67;;;;;;;;;;5107984;27;20200;-61
2022/12/10 06:08:36;;;;;;;6.17;3.47;;;;;;;;;;5118505;27;20210;-61
2022/12/10 06:11:04;;;;;;;4.10;2.67;;;;;;;;;;5100411;28;20213;-63
2022/12/10 06:13:32;;;;;;;4.30;3.37;;;;;;;;;;5105622;28;20226;-62
2022/12/10 06:15:59;;;;;;;4.60;3.63;;;;;;;;;;5090506;28;20685;-62
2022/12/10 06:18:26;;;;;;;4.97;3.80;;;;;;;;;;5091479;28;20206;-61
2022/12/10 06:20:53;;;;;;;4.97;4.17;;;;;;;;;;5105361;28;20274;-61
2022/12/10 06:23:20;;;;;;;5.10;3.53;;;;;;;;;;5101020;28;20202;-62
2022/12/10 06:25:47;;;;;;;5.70;4.27;;;;;;;;;;5109632;28;20208;-61
2022/12/10 06:28:16;;;;;;;6.23;3.87;;;;;;;;;;5096423;28;20287;-63
2022/12/10 06:30:43;;;;;;;3.27;2.90;;;;;;;;;;5109068;28;20201;-60
2022/12/10 06:33:10;;;;;;;4.40;3.00;;;;;;;;;;5107962;28;20874;-60
2022/12/10 06:35:38;;;;;;;4.57;3.13;;;;;;;;;;5090035;28;20213;-62
2022/12/10 06:38:06;;;;;;;3.80;3.03;;;;;;;;;;5108639;28;20212;-63
2022/12/10 06:40:33;;;;;;;3.77;3.00;;;;;;;;;;5110087;28;20592;-62
2022/12/10 06:43:00;;;;;;;4.03;2.60;;;;;;;;;;5091542;28;20705;-62
2022/12/10 06:45:29;;;;;;;4.37;2.47;;;;;;;;;;5089381;28;20210;-62
2022/12/10 06:47:56;;;;;;;3.63;3.00;;;;;;;;;;5090812;28;20668;-62
2022/12/10 06:50:23;;;;;;;4.00;2.70;;;;;;;;;;5089467;28;20206;-62
2022/12/10 06:52:51;;;;;;;4.03;3.20;;;;;;;;;;5090423;28;20213;-62
2022/12/10 06:55:18;;;;;;;6.23;2.93;;;;;;;;;;5089464;28;20688;-62
2022/12/10 06:57:45;;;;;;;5.47;3.63;;;;;;;;;;5090594;28;20198;-62
2022/12/10 07:00:13;;;;;;;6.63;2.83;;;;;;;;;;5103030;28;20296;-62
2022/12/10 07:02:42;;;;;;;5.90;3.47;;;;;;;;;;5108476;28;20198;-62
2022/12/10 07:05:09;;;;;;;4.03;3.63;;;;;;;;;;5103696;28;20202;-62
2022/12/10 07:07:36;;;;;;;5.87;3.50;;;;;;;;;;5088436;28;20854;-61
2022/12/10 07:10:04;;;;;;;6.00;4.00;;;;;;;;;;5089536;28;20269;-61
2022/12/10 07:12:31;;;;;;;3.47;3.00;;;;;;;;;;5099646;28;20255;-61
2022/12/10 07:14:58;;;;;;;4.20;3.60;;;;;;;;;;5088288;28;20230;-62
2022/12/10 07:17:25;;;;;;;3.23;3.00;;;;;;;;;;5104887;28;20205;-61
2022/12/10 07:19:54;;;;;;;4.40;3.10;;;;;;;;;;5104983;28;20583;-62
2022/12/10 07:22:21;;;;;;;5.60;3.17;;;;;;;;;;5089591;28;20210;-61
2022/12/10 07:24:50;;;;;;;2.60;2.40;;;;;;;;;;5089384;28;20676;-61
2022/12/10 07:27:17;;;;;;;3.00;2.77;;;;;;;;;;5100931;28;20202;-62
2022/12/10 07:29:45;;;;;;;6.07;3.47;;;;;;;;;;5089269;28;20669;-61
2022/12/10 07:32:12;;;;;;;3.73;3.23;;;;;;;;;;5089197;28;20209;-61
2022/12/10 07:34:39;;;;;;;3.40;2.80;;;;;;;;;;5100049;28;20230;-60
2022/12/10 07:37:07;;;;;;;5.33;3.00;;;;;;;;;;5096308;28;20202;-61
2022/12/10 07:39:35;;;;;;;6.27;3.30;;;;;;;;;;5088758;28;20222;-61
2022/12/10 07:42:02;;;;;;;5.53;3.03;;;;;;;;;;5089176;28;20268;-61
2022/12/10 07:44:29;;;;;;;2.47;2.27;;;;;;;;;;5093604;28;20208;-61
2022/12/10 07:46:56;;;;;;;4.07;3.03;;;;;;;;;;5096422;28;20206;-61
2022/12/10 07:49:24;;;;;;;4.70;2.97;;;;;;;;;;5090192;28;20233;-61
2022/12/10 07:51:51;;;;;;;2.87;2.67;;;;;;;;;;5087751;28;20214;-61
2022/12/10 07:54:20;;;;;;;4.73;3.33;;;;;;;;;;5091240;28;20232;-61
2022/12/10 07:56:47;;;;;;;2.83;2.73;;;;;;;;;;5108899;28;20236;-62
2022/12/10 07:59:14;;;;;;;4.07;3.57;;;;;;;;;;5110523;28;20206;-62
2022/12/10 08:01:41;;;;;;;3.37;2.60;;;;;;;;;;5112393;28;20201;-62
2022/12/10 08:04:08;;;;;;;6.07;3.10;;;;;;;;;;5102914;28;20321;-63
2022/12/10 08:06:36;;;;;;;3.57;3.07;;;;;;;;;;5104576;28;20239;-62
2022/12/10 08:09:03;;;;;;;3.73;2.30;;;;;;;;;;5093638;28;21016;-63
2022/12/10 08:11:32;;;;;;;3.17;2.87;;;;;;;;;;5109573;28;20201;-62
2022/12/10 08:13:59;;;;;;;6.43;3.13;;;;;;;;;;5092873;28;20283;-62
2022/12/10 08:16:27;;;;;;;4.47;3.20;;;;;;;;;;5091868;28;20210;-62
2022/12/10 08:18:54;;;;;;;5.90;3.83;;;;;;;;;;5092233;28;20297;-62
2022/12/10 08:21:23;;;;;;;4.60;2.57;;;;;;;;;;5092934;28;20203;-62
2022/12/10 08:23:50;;;;;;;4.27;3.50;;;;;;;;;;5099979;27;20208;-62
2022/12/10 08:26:19;;;;;;;4.87;3.40;;;;;;;;;;5092723;28;20202;-61
2022/12/10 08:28:48;;;;;;;5.23;3.80;;;;;;;;;;5091639;28;20211;-61
2022/12/10 08:31:16;;;;;;;5.30;3.60;;;;;;;;;;5092636;28;20230;-61
2022/12/10 08:33:43;;;;;;;4.30;3.53;;;;;;;;;;5097435;28;20214;-61
2022/12/10 08:36:12;;;;;;;7.70;4.00;;;;;;;;;;5109789;28;20213;-61
2022/12/10 08:38:39;;;;;;;4.30;3.30;;;;;;;;;;5111808;28;20370;-61
2022/12/10 08:41:07;;;;;;;4.77;4.27;;;;;;;;;;5106659;28;20217;-62
2022/12/10 08:43:34;;;;;;;8.80;4.80;;;;;;;;;;5104878;28;20700;-61
2022/12/10 08:46:02;;;;;;;8.27;4.50;;;;;;;;;;5111107;28;20583;-61
2022/12/10 08:48:30;;;;;;;7.23;4.83;;;;;;;;;;5103978;28;20209;-62
2022/12/10 08:50:57;;;;;;;4.70;3.83;;;;;;;;;;5092250;28;20206;-61
2022/12/10 08:53:24;;;;;;;8.27;5.50;;;;;;;;;;5091234;28;20203;-62
2022/12/10 08:55:51;;;;;;;4.63;3.20;;;;;;;;;;5092185;28;20244;-62
2022/12/10 08:58:18;;;;;;;5.23;4.60;;;;;;;;;;5101739;28;20195;-63
2022/12/10 09:00:46;;;;;;;7.33;4.60;;;;;;;;;;5106929;28;20214;-62
2022/12/10 09:03:14;;;;;;;6.70;4.07;;;;;;;;;;5106424;28;20213;-62
2022/12/10 09:05:42;;;;;;;6.70;4.97;;;;;;;;;;5104078;28;20197;-62
2022/12/10 09:08:09;;;;;;;11.70;5.60;;;;;;;;;;5095951;28;20242;-62
2022/12/10 09:10:36;;;;;;;6.03;4.20;;;;;;;;;;5102348;28;20586;-62
2022/12/10 09:13:03;;;;;;;8.77;3.83;;;;;;;;;;5100980;28;20290;-63
2022/12/10 09:15:30;;;;;;;9.83;5.27;;;;;;;;;;5099645;28;20227;-62
2022/12/10 09:17:58;;;;;;;12.87;5.37;;;;;;;;;;5103348;28;20231;-61
2022/12/10 09:20:26;;;;;;;6.67;5.13;;;;;;;;;;5090725;28;20941;-62
2022/12/10 09:22:53;;;;;;;4.97;3.77;;;;;;;;;;5107935;28;20666;-62
2022/12/10 09:25:21;;;;;;;7.47;4.33;;;;;;;;;;5109982;28;20208;-62
2022/12/10 09:27:48;;;;;;;6.70;4.23;;;;;;;;;;5110818;28;20209;-64
2022/12/10 09:30:16;;;;;;;8.13;4.77;;;;;;;;;;5091863;27;20205;-63
2022/12/10 09:32:43;;;;;;;9.13;4.10;;;;;;;;;;5090560;28;20204;-62
2022/12/10 09:35:10;;;;;;;6.57;4.27;;;;;;;;;;5090449;28;20477;-70
2022/12/10 09:37:39;;;;;;;6.00;3.93;;;;;;;;;;5093734;28;20208;-61
2022/12/10 09:40:06;;;;;;;4.53;4.03;;;;;;;;;;5109056;28;20208;-62
2022/12/10 09:42:40;;;;;;;9.63;5.43;;;;;;;;;;5095005;28;20217;-62
2022/12/10 09:45:10;;;;;;;9.47;6.33;;;;;;;;;;5090795;28;20247;-63
2022/12/10 09:47:41;;;;;;;36.07;19.70;;;;;;;;;;5107410;28;20590;-64
2022/12/10 09:50:14;;;;;;;8.57;5.10;;;;;;;;;;5108662;28;20206;-63
2022/12/10 09:52:45;;;;;;;13.13;5.90;;;;;;;;;;5090557;28;20676;-61
2022/12/10 09:55:14;;;;;;;12.57;6.10;;;;;;;;;;5091193;28;20229;-63
2022/12/10 09:57:42;;;;;;;21.07;7.97;;;;;;;;;;5107677;28;20229;-63
2022/12/10 10:00:18;;;;;;;16.40;7.73;;;;;;;;;;5108152;28;20209;-63
2022/12/10 10:02:46;;;;;;;10.60;6.23;;;;;;;;;;5090834;28;20213;-63
2022/12/10 10:05:15;;;;;;;4.57;4.07;;;;;;;;;;5109707;28;20219;-63
2022/12/10 10:07:46;;;;;;;3.30;3.10;;;;;;;;;;5109056;28;20225;-63
2022/12/10 10:10:21;;;;;;;4.90;3.40;;;;;;;;;;5106129;28;20198;-63
2022/12/10 10:12:49;;;;;;;6.17;4.27;;;;;;;;;;5089517;28;20206;-63
2022/12/10 10:15:18;;;;;;;5.17;3.57;;;;;;;;;;5089894;28;20226;-63
2022/12/10 10:17:46;;;;;;;4.77;3.40;;;;;;;;;;5089674;28;20213;-63
2022/12/10 10:20:14;;;;;;;4.77;3.70;;;;;;;;;;5100192;28;20266;-63
2022/12/10 10:22:41;;;;;;;6.73;4.33;;;;;;;;;;5109769;28;20214;-63
2022/12/10 10:25:15;;;;;;;13.97;3.87;;;;;;;;;;5109506;28;20194;-62
2022/12/10 10:27:42;;;;;;;4.17;3.20;;;;;;;;;;5108827;28;20216;-63
2022/12/10 10:30:16;;;;;;;6.00;4.33;;;;;;;;;;5109484;28;20210;-62
2022/12/10 10:32:49;;;;;;;6.27;4.03;;;;;;;;;;5109394;28;20247;-61
2022/12/10 10:35:22;;;;;;;6.87;4.00;;;;;;;;;;5109226;28;20653;-62
2022/12/10 10:37:49;;;;;;;3.77;3.20;;;;;;;;;;5093900;28;20216;-63
2022/12/10 10:40:24;;;;;;;8.80;4.77;;;;;;;;;;5091105;28;20207;-63
2022/12/10 10:42:53;;;;;;;3.70;3.07;;;;;;;;;;5089235;28;20213;-62
2022/12/10 10:45:40;;;;;;;3.50;3.20;;;;;;;;;;5101812;28;20205;-63
2022/12/10 10:48:12;;;;;;;5.10;3.03;;;;;;;;;;5108219;28;20217;-64
2022/12/10 10:50:41;;;;;;;6.30;4.20;;;;;;;;;;5102164;27;20629;-66
2022/12/10 10:53:28;;;;;;;3.60;3.30;;;;;;;;;;5108751;28;20202;-63
2022/12/10 10:55:58;;;;;;;5.77;4.30;;;;;;;;;;5102489;28;20229;-63
2022/12/10 10:58:25;;;;;;;7.67;4.10;;;;;;;;;;5098924;28;20266;-62
2022/12/10 11:01:00;;;;;;;5.63;4.03;;;;;;;;;;5100601;28;20227;-62
2022/12/10 11:03:28;;;;;;;5.83;3.23;;;;;;;;;;5107164;28;20219;-65
2022/12/10 11:05:56;;;;;;;6.20;3.20;;;;;;;;;;5092762;28;20202;-63
2022/12/10 11:08:25;;;;;;;6.33;3.60;;;;;;;;;;5108589;28;20239;-63
2022/12/10 11:10:53;;;;;;;7.17;4.47;;;;;;;;;;5108915;28;20531;-66
2022/12/10 11:13:25;;;;;;;42.87;17.90;;;;;;;;;;5098504;28;20666;-63
2022/12/10 11:16:03;;;;;;;6.27;3.70;;;;;;;;;;5098650;28;20256;-63
2022/12/10 11:18:34;;;;;;;6.03;3.37;;;;;;;;;;5109392;28;20216;-64
2022/12/10 11:21:03;;;;;;;7.03;4.67;;;;;;;;;;5107519;28;20671;-64
2022/12/10 11:23:31;;;;;;;6.07;3.97;;;;;;;;;;5106316;28;20627;-64
2022/12/10 11:26:03;;;;;;;4.33;3.23;;;;;;;;;;5101052;28;20206;-62
2022/12/10 11:28:38;;;;;;;6.23;3.60;;;;;;;;;;5090048;28;20210;-63
2022/12/10 11:31:19;;;;;;;8.40;3.87;;;;;;;;;;5097741;28;20614;-64
2022/12/10 11:33:49;;;;;;;5.47;3.47;;;;;;;;;;5106887;28;20219;-63
2022/12/10 11:36:24;;;;;;;5.00;3.83;;;;;;;;;;5098680;28;20883;-64
2022/12/10 11:38:56;;;;;;;4.40;3.70;;;;;;;;;;5100863;28;20197;-63
2022/12/10 11:41:27;;;;;;;12.97;6.13;;;;;;;;;;5102683;28;20206;-62
2022/12/10 11:44:06;;;;;;;15.90;5.77;;;;;;;;;;5088726;28;20217;-62
2022/12/10 11:46:39;;;;;;;8.50;3.80;;;;;;;;;;5088887;28;20530;-62
2022/12/10 11:49:14;;;;;;;7.23;4.23;;;;;;;;;;5089900;28;20209;-62
2022/12/10 11:51:43;;;;;;;6.73;4.63;;;;;;;;;;5104601;28;20208;-63
2022/12/10 11:54:25;;;;;;;9.47;4.37;;;;;;;;;;5088479;28;20207;-63
2022/12/10 11:57:00;;;;;;;7.80;3.90;;;;;;;;;;5099608;28;20218;-62
2022/12/10 11:59:30;;;;;;;12.27;7.60;;;;;;;;;;5088564;28;20212;-63
2022/12/10 12:02:21;;;;;;;6.87;4.13;;;;;;;;;;5095683;28;20205;-63
2022/12/10 12:04:55;;;;;;;4.30;3.17;;;;;;;;;;5103004;28;20656;-61
2022/12/10 12:07:35;;;;;;;5.13;3.47;;;;;;;;;;5096600;28;20238;-64
2022/12/10 12:10:15;;;;;;;4.97;3.20;;;;;;;;;;5099227;28;20208;-62
2022/12/10 12:12:45;;;;;;;3.70;2.80;;;;;;;;;;5102076;28;20198;-61
2022/12/10 12:15:18;;;;;;;8.70;3.53;;;;;;;;;;5092443;28;20340;-67
2022/12/10 12:17:47;;;;;;;8.07;3.40;;;;;;;;;;5092456;28;20212;-70
2022/12/10 12:20:17;;;;;;;5.23;3.13;;;;;;;;;;5089855;28;20566;-69
2022/12/10 12:22:47;;;;;;;3.63;3.30;;;;;;;;;;5089953;28;20253;-68
2022/12/10 12:25:18;;;;;;;8.40;3.80;;;;;;;;;;5107967;28;20201;-65
2022/12/10 12:27:52;;;;;;;5.37;3.30;;;;;;;;;;5088467;28;20676;-74
2022/12/10 12:30:21;;;;;;;6.93;4.23;;;;;;;;;;5108339;28;20309;-66
2022/12/10 12:32:53;;;;;;;6.57;3.17;;;;;;;;;;5090492;28;20207;-64
2022/12/10 12:35:23;;;;;;;5.83;3.23;;;;;;;;;;5103933;28;20227;-66
2022/12/10 12:37:52;;;;;;;4.30;3.20;;;;;;;;;;5104725;28;20641;-67
2022/12/10 12:40:24;;;;;;;4.30;3.10;;;;;;;;;;5087924;28;20206;-67
2022/12/10 12:42:55;;;;;;;4.10;2.90;;;;;;;;;;5089112;28;20215;-59
2022/12/10 12:45:30;;;;;;;4.50;3.20;;;;;;;;;;5095622;28;20201;-61
2022/12/10 12:48:00;;;;;;;13.03;4.03;;;;;;;;;;5095548;28;20198;-66
2022/12/10 12:50:29;;;;;;;4.53;3.23;;;;;;;;;;5109032;28;20774;-63
2022/12/10 12:52:58;;;;;;;3.87;2.83;;;;;;;;;;5106246;28;20211;-63
2022/12/10 12:55:28;;;;;;;4.10;3.17;;;;;;;;;;5097190;28;20230;-63
2022/12/10 12:57:58;;;;;;;5.30;3.37;;;;;;;;;;5095387;28;20203;-64
2022/12/10 13:00:35;;;;;;;4.07;3.47;;;;;;;;;;5092444;28;20233;-66
2022/12/10 13:03:08;;;;;;;5.10;2.63;;;;;;;;;;5091502;28;20206;-60
2022/12/10 13:05:38;;;;;;;5.63;3.97;;;;;;;;;;5094405;28;20210;-66
2022/12/10 13:08:25;;;;;;;3.73;3.43;;;;;;;;;;5109698;28;20629;-67
2022/12/10 13:10:53;;;;;;;6.23;3.50;;;;;;;;;;5096428;28;20704;-66
2022/12/10 13:13:29;;;;;;;2.73;2.50;;;;;;;;;;5091179;28;20703;-66
2022/12/10 13:15:58;;;;;;;5.70;3.83;;;;;;;;;;5093993;28;20221;-66
2022/12/10 13:18:40;;;;;;;2.97;2.67;;;;;;;;;;5111771;28;20209;-66
2022/12/10 13:21:28;;;;;;;2.90;2.50;;;;;;;;;;5105810;28;20251;-66
2022/12/10 13:24:06;;;;;;;4.20;1.87;;;;;;;;;;5110698;28;20679;-63
2022/12/10 13:26:33;;;;;;;6.63;4.23;;;;;;;;;;5092340;28;20203;-64
2022/12/10 13:29:12;;;;;;;4.13;3.10;;;;;;;;;;5089855;28;20697;-66
2022/12/10 13:31:42;;;;;;;7.07;3.23;;;;;;;;;;5099117;28;20217;-65
2022/12/10 13:34:23;;;;;;;4.27;2.20;;;;;;;;;;5097514;27;20255;-65
2022/12/10 13:37:05;;;;;;;3.17;2.90;;;;;;;;;;5091704;28;20226;-65
2022/12/10 13:39:33;;;;;;;2.80;2.50;;;;;;;;;;5090721;28;20211;-65
2022/12/10 13:45:06;;;;;;;3.93;3.53;;;;;;;;;;5101913;28;20220;-65
2022/12/10 13:47:44;;;;;;;5.33;3.07;;;;;;;;;;5108107;28;20287;-65
2022/12/10 13:50:17;;;;;;;3.33;2.80;;;;;;;;;;5098001;28;20219;-65
2022/12/10 13:52:51;;;;;;;4.50;2.83;;;;;;;;;;5096846;28;20210;-65
2022/12/10 13:55:25;;;;;;;5.20;3.57;;;;;;;;;;5109098;28;20228;-65
2022/12/10 13:57:58;;;;;;;4.37;3.20;;;;;;;;;;5108327;28;20202;-65
2022/12/10 14:00:30;;;;;;;5.33;3.40;;;;;;;;;;5109989;28;20231;-64
2022/12/10 14:03:08;;;;;;;8.73;3.37;;;;;;;;;;5089712;28;20210;-66
2022/12/10 14:05:41;;;;;;;8.53;4.10;;;;;;;;;;5089548;28;20224;-66
2022/12/10 14:08:12;;;;;;;3.87;3.33;;;;;;;;;;5089237;28;20238;-66
2022/12/10 14:10:39;;;;;;;4.23;3.07;;;;;;;;;;5089388;28;20206;-67
2022/12/10 14:13:06;;;;;;;2.93;2.73;;;;;;;;;;5089783;28;20221;-64
2022/12/10 14:15:35;;;;;;;2.70;2.50;;;;;;;;;;5089588;28;20209;-65
2022/12/10 14:18:05;;;;;;;2.77;2.53;;;;;;;;;;5089479;28;20209;-67
2022/12/10 14:20:35;;;;;;;5.60;3.40;;;;;;;;;;5089406;28;20297;-62
2022/12/10 14:25:46;;;;;;;4.47;2.37;;;;;;;;;;5106786;28;20199;-65
2022/12/10 14:28:14;;;;;;;4.70;3.67;;;;;;;;;;5108835;28;20216;-64
2022/12/10 14:30:43;;;;;;;6.67;3.33;;;;;;;;;;5092404;28;20213;-64
2022/12/10 14:33:14;;;;;;;8.20;3.27;;;;;;;;;;5094741;28;20680;-68
2022/12/10 14:35:41;;;;;;;1.80;1.57;;;;;;;;;;5104085;28;20210;-62
2022/12/10 14:38:16;;;;;;;3.13;2.23;;;;;;;;;;5101352;28;20302;-63
2022/12/10 14:40:43;;;;;;;5.97;2.97;;;;;;;;;;5095528;28;20686;-65
2022/12/10 14:43:14;;;;;;;5.13;3.00;;;;;;;;;;5090153;28;20201;-64
2022/12/10 14:45:45;;;;;;;6.90;3.60;;;;;;;;;;5089289;28;20201;-64
2022/12/10 14:48:16;;;;;;;6.50;3.43;;;;;;;;;;5092584;28;20209;-65
2022/12/10 14:50:43;;;;;;;2.57;2.37;;;;;;;;;;5109479;28;20315;-63
2022/12/10 14:53:13;;;;;;;6.33;3.87;;;;;;;;;;5092220;28;20209;-65
2022/12/10 14:55:40;;;;;;;3.87;3.17;;;;;;;;;;5089558;28;20256;-65
2022/12/10 14:58:08;;;;;;;3.10;2.77;;;;;;;;;;5097217;28;20213;-66
2022/12/10 15:00:35;;;;;;;4.03;3.00;;;;;;;;;;5106492;28;20233;-68
2022/12/10 15:03:03;;;;;;;6.53;2.77;;;;;;;;;;5103269;28;20201;-62
2022/12/10 15:05:33;;;;;;;5.77;3.40;;;;;;;;;;5107401;27;20198;-64
2022/12/10 15:08:01;;;;;;;5.90;3.40;;;;;;;;;;5089853;28;20249;-69
2022/12/10 15:10:30;;;;;;;4.40;3.30;;;;;;;;;;5096357;28;20205;-64